createdAt,value
2019-03-27T00:01:40.059Z,14.83
2019-03-27T00:04:11.338Z,16.13
2019-03-27T00:06:42.651Z,15.53
2019-03-27T00:09:13.970Z,8.53
2019-03-27T00:11:45.245Z,14.75
2019-03-27T00:14:16.597Z,16.87
2019-03-27T00:16:48.007Z,23.57
2019-03-27T00:19:19.324Z,16.77
2019-03-27T00:21:50.582Z,18.27
2019-03-27T00:24:21.982Z,17.95
2019-03-27T00:26:53.302Z,14.98
2019-03-27T00:29:24.615Z,19.55
2019-03-27T00:31:56.015Z,14.77
2019-03-27T00:34:27.283Z,16.02
2019-03-27T00:36:58.573Z,13.80
2019-03-27T00:39:29.985Z,17.82
2019-03-27T00:42:01.310Z,16.37
2019-03-27T00:44:32.629Z,20.62
2019-03-27T00:47:03.972Z,21.35
2019-03-27T00:49:35.296Z,22.60
2019-03-27T00:52:06.611Z,30.23
2019-03-27T00:54:37.876Z,19.57
2019-03-27T00:57:09.243Z,21.65
2019-03-27T00:59:40.516Z,16.20
2019-03-27T01:02:11.939Z,20.00
2019-03-27T01:04:43.304Z,25.43
2019-03-27T01:07:14.632Z,14.60
2019-03-27T01:09:45.961Z,16.95
2019-03-27T01:12:17.321Z,19.55
2019-03-27T01:14:48.673Z,13.47
2019-03-27T01:17:20.045Z,21.37
2019-03-27T01:19:51.440Z,10.30
2019-03-27T01:22:22.750Z,19.00
2019-03-27T01:24:54.016Z,15.23
2019-03-27T01:27:25.253Z,16.65
2019-03-27T01:29:56.578Z,14.85
2019-03-27T01:32:27.925Z,22.07
2019-03-27T01:34:59.247Z,20.43
2019-03-27T01:37:30.574Z,19.90
2019-03-27T01:40:02.771Z,17.15
2019-03-27T01:42:34.236Z,14.83
2019-03-27T01:45:05.862Z,17.07
2019-03-27T01:47:37.298Z,23.87
2019-03-27T01:50:09.520Z,34.73
2019-03-27T01:52:40.857Z,21.42
2019-03-27T01:55:12.248Z,21.60
2019-03-27T01:57:43.621Z,17.57
2019-03-27T02:00:16.085Z,27.27
2019-03-27T02:02:47.474Z,28.38
2019-03-27T02:05:18.844Z,19.53
2019-03-27T02:07:50.142Z,25.62
2019-03-27T02:10:21.504Z,27.07
2019-03-27T02:12:52.758Z,26.20
2019-03-27T02:15:24.098Z,22.30
2019-03-27T02:17:55.497Z,24.32
2019-03-27T02:20:26.711Z,31.05
2019-03-27T02:22:58.056Z,26.10
2019-03-27T02:25:29.338Z,27.48
2019-03-27T02:28:00.637Z,29.15
2019-03-27T02:30:31.903Z,25.40
2019-03-27T02:33:03.261Z,31.70
2019-03-27T02:35:34.522Z,34.78
2019-03-27T02:38:05.842Z,26.30
2019-03-27T02:40:37.227Z,31.55
2019-03-27T02:43:08.496Z,28.53
2019-03-27T02:45:39.805Z,23.25
2019-03-27T02:48:13.920Z,23.87
2019-03-27T02:50:44.080Z,21.23
2019-03-27T02:53:15.384Z,29.90
2019-03-27T02:55:46.698Z,22.52
2019-03-27T02:58:17.941Z,23.18
2019-03-27T03:00:49.286Z,29.35
2019-03-27T03:03:20.418Z,27.25
2019-03-27T03:05:51.715Z,22.05
2019-03-27T03:08:23.040Z,30.72
2019-03-27T03:10:54.389Z,25.75
2019-03-27T03:13:25.668Z,29.07
2019-03-27T03:15:56.983Z,27.85
2019-03-27T03:18:28.316Z,25.47
2019-03-27T03:20:59.618Z,19.98
2019-03-27T03:23:30.930Z,34.13
2019-03-27T03:26:02.246Z,20.43
2019-03-27T03:28:33.493Z,23.42
2019-03-27T03:31:04.819Z,20.55
2019-03-27T03:33:36.138Z,35.05
2019-03-27T03:36:07.463Z,25.23
2019-03-27T03:38:38.742Z,28.80
2019-03-27T03:41:10.196Z,31.97
2019-03-27T03:43:41.391Z,23.50
2019-03-27T03:46:12.646Z,25.37
2019-03-27T03:48:43.887Z,27.02
2019-03-27T03:51:16.097Z,36.08
2019-03-27T03:53:48.614Z,26.55
2019-03-27T03:56:21.831Z,25.57
2019-03-27T03:58:54.796Z,20.73
2019-03-27T04:01:28.966Z,27.60
2019-03-27T04:04:01.509Z,21.73
2019-03-27T04:06:32.776Z,25.68
2019-03-27T04:09:04.272Z,25.27
2019-03-27T04:11:35.623Z,34.48
2019-03-27T04:14:06.917Z,19.98
2019-03-27T04:16:38.187Z,24.47
2019-03-27T04:19:09.541Z,30.23
2019-03-27T04:21:40.844Z,31.37
2019-03-27T04:24:12.119Z,29.85
2019-03-27T04:26:43.441Z,30.72
2019-03-27T04:29:14.718Z,25.07
2019-03-27T04:31:46.005Z,28.30
2019-03-27T04:34:17.248Z,27.17
2019-03-27T04:36:48.557Z,29.67
2019-03-27T04:39:19.773Z,33.20
2019-03-27T04:41:51.016Z,28.47
2019-03-27T04:44:22.379Z,31.07
2019-03-27T04:46:53.684Z,30.75
2019-03-27T04:49:25.087Z,32.73
2019-03-27T04:51:56.347Z,21.27
2019-03-27T04:54:27.549Z,29.87
2019-03-27T04:56:58.933Z,34.92
2019-03-27T04:59:30.259Z,30.17
2019-03-27T05:02:02.398Z,29.73
2019-03-27T05:04:33.718Z,32.28
2019-03-27T05:07:05.056Z,35.25
2019-03-27T05:09:36.294Z,28.90
2019-03-27T05:12:07.625Z,36.55
2019-03-27T05:14:38.917Z,27.02
2019-03-27T05:17:10.226Z,40.03
2019-03-27T05:19:41.482Z,27.45
2019-03-27T05:22:12.831Z,30.23
2019-03-27T05:24:44.099Z,20.92
2019-03-27T05:27:15.317Z,34.20
2019-03-27T05:29:46.556Z,24.57
2019-03-27T05:32:17.895Z,30.23
2019-03-27T05:34:49.125Z,26.73
2019-03-27T05:37:20.436Z,31.82
2019-03-27T05:39:51.679Z,31.93
2019-03-27T05:42:22.872Z,23.67
2019-03-27T05:44:54.084Z,33.83
2019-03-27T05:47:25.404Z,28.92
2019-03-27T05:49:56.790Z,26.87
2019-03-27T05:52:28.107Z,33.55
2019-03-27T05:54:59.419Z,23.62
2019-03-27T05:57:30.644Z,33.90
2019-03-27T06:00:02.004Z,24.65
2019-03-27T06:02:33.330Z,29.40
2019-03-27T06:05:04.795Z,27.32
2019-03-27T06:07:36.152Z,39.75
2019-03-27T06:10:08.579Z,32.53
2019-03-27T06:12:40.265Z,36.73
2019-03-27T06:15:12.326Z,23.92
2019-03-27T06:17:43.615Z,28.60
2019-03-27T06:20:15.108Z,35.10
2019-03-27T06:22:46.338Z,25.25
2019-03-27T06:25:17.670Z,28.23
2019-03-27T06:27:48.965Z,27.50
2019-03-27T06:30:20.307Z,28.45
2019-03-27T06:32:51.541Z,23.00
2019-03-27T06:35:22.855Z,38.50
2019-03-27T06:37:54.202Z,30.00
2019-03-27T06:40:25.499Z,33.08
2019-03-27T06:42:56.847Z,32.30
2019-03-27T06:48:26.275Z,29.67
2019-03-27T06:50:51.511Z,28.67
2019-03-27T06:53:22.876Z,21.80
2019-03-27T06:55:54.108Z,32.03
2019-03-27T06:58:25.440Z,28.75
2019-03-27T07:00:56.756Z,29.35
2019-03-27T07:03:28.055Z,34.18
2019-03-27T07:05:59.318Z,26.23
2019-03-27T07:08:30.690Z,31.80
2019-03-27T07:11:01.860Z,29.00
2019-03-27T07:13:33.159Z,36.45
2019-03-27T07:16:04.464Z,21.82
2019-03-27T07:18:40.307Z,22.37
2019-03-27T07:21:08.839Z,25.80
2019-03-27T07:23:40.181Z,32.25
2019-03-27T07:26:11.435Z,19.65
2019-03-27T07:28:42.723Z,29.77
2019-03-27T07:31:14.053Z,23.85
2019-03-27T07:33:45.365Z,17.15
2019-03-27T07:36:16.734Z,23.87
2019-03-27T07:38:48.028Z,14.15
2019-03-27T07:41:19.293Z,16.97
2019-03-27T07:43:50.599Z,21.80
2019-03-27T07:46:21.914Z,25.62
2019-03-27T07:48:54.457Z,21.77
2019-03-27T07:51:25.876Z,15.30
2019-03-27T07:53:57.235Z,20.23
2019-03-27T07:56:28.545Z,22.50
2019-03-27T07:58:59.982Z,14.50
2019-03-27T08:01:31.372Z,20.60
2019-03-27T08:04:02.666Z,16.02
2019-03-27T08:06:33.969Z,15.23
2019-03-27T08:09:06.907Z,13.07
2019-03-27T08:11:38.236Z,15.35
2019-03-27T08:14:09.639Z,14.38
2019-03-27T08:16:40.887Z,12.43
2019-03-27T08:19:12.241Z,12.58
2019-03-27T08:21:43.529Z,12.58
2019-03-27T08:24:14.886Z,8.37
2019-03-27T08:26:46.203Z,9.10
2019-03-27T08:29:17.512Z,17.52
2019-03-27T08:31:48.896Z,11.63
2019-03-27T08:37:10.521Z,8.00
2019-03-27T08:39:41.833Z,14.07
2019-03-27T08:42:13.135Z,13.18
2019-03-27T08:44:44.469Z,10.17
2019-03-27T08:47:15.829Z,13.70
2019-03-27T08:49:47.114Z,8.05
2019-03-27T08:52:18.461Z,11.93
2019-03-27T08:54:49.758Z,13.33
2019-03-27T08:57:21.094Z,11.75
2019-03-27T08:59:52.341Z,7.37
2019-03-27T09:02:23.548Z,10.68
2019-03-27T09:04:54.898Z,14.73
2019-03-27T09:07:26.222Z,8.63
2019-03-27T09:09:57.473Z,13.78
2019-03-27T09:12:28.844Z,15.08
2019-03-27T09:15:00.098Z,10.98
2019-03-27T09:17:31.541Z,9.60
2019-03-27T09:20:02.849Z,7.47
2019-03-27T09:22:34.076Z,10.05
2019-03-27T09:25:05.980Z,7.15
2019-03-27T09:27:37.253Z,10.43
2019-03-27T09:30:10.838Z,7.15
2019-03-27T09:32:42.132Z,5.70
2019-03-27T09:35:13.554Z,3.67
2019-03-27T09:37:44.912Z,10.93
2019-03-27T09:40:16.414Z,4.27
2019-03-27T09:42:47.690Z,9.25
2019-03-27T09:45:19.231Z,10.32
2019-03-27T09:47:50.521Z,11.43
2019-03-27T09:50:21.788Z,9.10
2019-03-27T09:52:53.042Z,8.78
2019-03-27T09:55:24.341Z,11.43
2019-03-27T09:57:55.641Z,9.33
2019-03-27T10:01:05.475Z,9.10
2019-03-27T10:03:36.761Z,7.42
2019-03-27T10:06:08.069Z,7.63
2019-03-27T10:08:39.403Z,10.45
2019-03-27T10:11:10.691Z,9.48
2019-03-27T10:13:41.959Z,8.98
2019-03-27T10:16:13.287Z,10.45
2019-03-27T10:18:47.297Z,9.83
2019-03-27T10:21:17.689Z,11.37
2019-03-27T10:23:48.984Z,7.35
2019-03-27T10:26:20.353Z,8.80
2019-03-27T10:28:51.806Z,6.87
2019-03-27T10:31:23.089Z,16.35
2019-03-27T10:33:54.390Z,8.33
2019-03-27T10:36:25.801Z,11.03
2019-03-27T10:38:56.937Z,13.50
2019-03-27T10:41:28.242Z,7.47
2019-03-27T10:43:59.700Z,7.22
2019-03-27T10:46:30.913Z,8.53
2019-03-27T10:49:02.185Z,8.65
2019-03-27T10:51:33.503Z,12.68
2019-03-27T10:54:04.899Z,9.50
2019-03-27T10:56:36.240Z,16.52
2019-03-27T10:59:07.562Z,9.63
2019-03-27T11:01:38.819Z,12.60
2019-03-27T11:04:10.137Z,11.93
2019-03-27T11:06:41.504Z,10.75
2019-03-27T11:09:12.771Z,12.82
2019-03-27T11:11:43.896Z,15.88
2019-03-27T11:14:15.132Z,7.30
2019-03-27T11:16:46.415Z,10.53
2019-03-27T11:19:17.730Z,8.98
2019-03-27T11:21:49.033Z,10.80
2019-03-27T11:24:20.223Z,6.37
2019-03-27T11:26:51.523Z,4.45
2019-03-27T11:29:22.840Z,6.10
2019-03-27T11:31:54.059Z,3.95
2019-03-27T11:34:25.388Z,5.15
2019-03-27T11:36:56.735Z,6.78
2019-03-27T11:39:27.946Z,11.25
2019-03-27T11:42:00.744Z,4.80
2019-03-27T11:44:32.295Z,7.10
2019-03-27T11:47:03.581Z,10.53
2019-03-27T11:49:34.920Z,5.40
2019-03-27T11:52:06.232Z,5.17
2019-03-27T11:54:37.547Z,8.08
2019-03-27T11:57:08.793Z,4.58
2019-03-27T11:59:52.924Z,4.17
2019-03-27T12:02:13.164Z,4.45
2019-03-27T12:04:44.509Z,5.67
2019-03-27T12:07:15.863Z,5.78
2019-03-27T12:09:47.154Z,4.70
2019-03-27T12:12:18.347Z,8.55
2019-03-27T12:14:49.544Z,3.40
2019-03-27T12:17:20.848Z,12.37
2019-03-27T12:19:52.251Z,9.38
2019-03-27T12:22:23.482Z,9.33
2019-03-27T12:24:54.841Z,7.00
2019-03-27T12:27:26.083Z,8.73
2019-03-27T12:29:57.391Z,8.68
2019-03-27T12:32:28.580Z,4.65
2019-03-27T12:34:59.784Z,5.50
2019-03-27T12:37:31.071Z,2.90
2019-03-27T12:40:11.032Z,8.20
2019-03-27T12:42:35.384Z,8.65
2019-03-27T12:45:07.459Z,2.85
2019-03-27T12:47:38.747Z,3.58
2019-03-27T12:50:10.432Z,3.50
2019-03-27T12:52:41.645Z,3.12
2019-03-27T12:55:12.954Z,8.53
2019-03-27T12:57:44.200Z,6.33
2019-03-27T13:00:15.894Z,6.35
2019-03-27T13:02:47.235Z,8.00
2019-03-27T13:05:18.539Z,2.90
2019-03-27T13:07:50.523Z,3.55
2019-03-27T13:10:21.808Z,5.85
2019-03-27T13:12:53.172Z,4.65
2019-03-27T13:15:24.448Z,7.17
2019-03-27T13:17:55.669Z,4.30
2019-03-27T13:20:27.026Z,5.83
2019-03-27T13:22:58.235Z,5.05
2019-03-27T13:25:29.469Z,6.12
2019-03-27T13:28:00.817Z,7.60
2019-03-27T13:30:32.083Z,8.10
2019-03-27T13:33:03.404Z,7.42
2019-03-27T13:35:34.723Z,4.22
2019-03-27T13:38:06.008Z,7.08
2019-03-27T13:40:37.322Z,4.23
2019-03-27T13:43:09.590Z,5.00
2019-03-27T13:45:40.987Z,9.30
2019-03-27T13:48:12.268Z,5.25
2019-03-27T13:50:43.595Z,10.65
2019-03-27T13:53:14.887Z,4.70
2019-03-27T13:55:46.207Z,3.25
2019-03-27T13:58:17.368Z,3.33
2019-03-27T14:00:48.650Z,7.90
2019-03-27T14:03:19.939Z,5.53
2019-03-27T14:05:51.263Z,5.00
2019-03-27T14:08:22.472Z,3.10
2019-03-27T14:10:53.713Z,2.35
2019-03-27T14:13:24.917Z,5.58
2019-03-27T14:15:56.093Z,2.05
2019-03-27T14:18:27.445Z,2.72
2019-03-27T14:20:58.750Z,2.87
2019-03-27T14:23:30.026Z,4.40
2019-03-27T14:26:01.137Z,2.80
2019-03-27T14:28:32.457Z,3.80
2019-03-27T14:31:04.032Z,3.00
2019-03-27T14:33:35.333Z,2.20
2019-03-27T14:36:06.694Z,2.85
2019-03-27T14:38:37.968Z,2.52
2019-03-27T14:41:09.248Z,2.50
2019-03-27T14:43:40.483Z,3.10
2019-03-27T14:46:11.778Z,3.45
2019-03-27T14:48:43.080Z,4.83
2019-03-27T14:51:14.444Z,4.30
2019-03-27T14:53:45.648Z,8.63
2019-03-27T14:56:16.936Z,8.68
2019-03-27T14:58:48.316Z,8.33
2019-03-27T15:01:19.610Z,5.00
2019-03-27T15:03:50.890Z,4.35
2019-03-27T15:06:22.184Z,6.72
2019-03-27T15:08:53.448Z,8.65
2019-03-27T15:11:24.786Z,7.00
2019-03-27T15:13:56.148Z,7.92
2019-03-27T15:16:27.393Z,6.45
2019-03-27T15:18:58.625Z,6.85
2019-03-27T15:21:29.958Z,8.85
2019-03-27T15:24:01.284Z,8.85
2019-03-27T15:26:32.477Z,9.00
2019-03-27T15:29:03.826Z,6.53
2019-03-27T15:31:35.176Z,9.28
2019-03-27T15:34:06.427Z,10.68
2019-03-27T15:36:37.799Z,8.68
2019-03-27T15:39:09.793Z,9.63
2019-03-27T15:41:41.136Z,13.70
2019-03-27T15:44:12.429Z,12.63
2019-03-27T15:46:43.739Z,16.27
2019-03-27T15:49:15.061Z,16.87
2019-03-27T15:51:46.381Z,25.90
2019-03-27T15:54:17.725Z,19.50
2019-03-27T15:56:49.050Z,26.57
2019-03-27T15:59:20.391Z,22.73
2019-03-27T16:01:51.793Z,26.57
2019-03-27T16:04:23.084Z,29.30
2019-03-27T16:06:54.440Z,30.80
2019-03-27T16:09:25.850Z,37.20
2019-03-27T16:11:57.193Z,31.20
2019-03-27T16:14:28.632Z,30.25
2019-03-27T16:17:12.725Z,29.23
2019-03-27T16:19:33.017Z,27.10
2019-03-27T16:22:04.496Z,28.85
2019-03-27T16:24:35.747Z,26.45
2019-03-27T16:27:07.133Z,23.92
2019-03-27T16:29:38.480Z,19.92
2019-03-27T16:32:09.899Z,23.20
2019-03-27T16:34:41.235Z,20.35
2019-03-27T16:37:13.813Z,30.45
2019-03-27T16:39:48.270Z,24.30
2019-03-27T16:42:19.491Z,22.25
2019-03-27T16:44:50.843Z,19.98
2019-03-27T16:47:22.835Z,16.57
2019-03-27T16:49:54.334Z,22.10
2019-03-27T16:52:25.752Z,22.75
2019-03-27T16:54:57.126Z,31.02
2019-03-27T16:57:28.364Z,20.55
2019-03-27T16:59:59.864Z,18.02
2019-03-27T17:02:31.279Z,23.87
2019-03-27T17:05:02.637Z,21.70
2019-03-27T17:07:33.926Z,25.77
2019-03-27T17:10:05.473Z,19.70
2019-03-27T17:12:36.978Z,26.93
2019-03-27T17:15:08.719Z,30.87
2019-03-27T17:17:40.084Z,24.82
2019-03-27T17:20:12.702Z,23.12
2019-03-27T17:22:44.084Z,21.50
2019-03-27T17:25:15.475Z,21.00
2019-03-27T17:27:46.950Z,22.70
2019-03-27T17:30:18.969Z,18.80
2019-03-27T17:32:50.282Z,20.70
2019-03-27T17:35:21.559Z,18.60
2019-03-27T17:37:53.002Z,25.20
2019-03-27T17:40:24.573Z,22.30
2019-03-27T17:42:56.021Z,14.68
2019-03-27T17:45:27.492Z,15.50
2019-03-27T17:47:58.962Z,15.88
2019-03-27T17:50:30.277Z,19.67
2019-03-27T17:53:01.576Z,14.97
2019-03-27T17:55:33.019Z,25.10
2019-03-27T17:58:04.555Z,24.15
2019-03-27T18:00:52.779Z,22.90
2019-03-27T18:03:24.198Z,22.20
2019-03-27T18:05:55.527Z,17.07
2019-03-27T18:08:26.876Z,24.12
2019-03-27T18:10:58.212Z,29.67
2019-03-27T18:13:29.537Z,21.50
2019-03-27T18:16:00.931Z,25.90
2019-03-27T18:18:32.207Z,22.65
2019-03-27T18:21:03.568Z,25.48
2019-03-27T18:23:45.235Z,26.68
2019-03-27T18:26:08.225Z,18.60
2019-03-27T18:28:39.521Z,20.37
2019-03-27T18:31:10.819Z,20.92
2019-03-27T18:33:42.131Z,19.30
2019-03-27T18:36:13.502Z,19.95
2019-03-27T18:38:46.052Z,22.55
2019-03-27T18:41:17.594Z,24.52
2019-03-27T18:43:48.980Z,24.12
2019-03-27T18:46:20.282Z,22.65
2019-03-27T18:48:51.590Z,30.20
2019-03-27T18:51:22.929Z,22.02
2019-03-27T18:53:59.970Z,24.87
2019-03-27T18:59:19.928Z,28.05
2019-03-27T19:01:51.337Z,23.57
2019-03-27T19:04:22.731Z,26.35
2019-03-27T19:06:54.169Z,28.02
2019-03-27T19:09:25.607Z,30.85
2019-03-27T19:11:56.970Z,21.33
2019-03-27T19:14:28.317Z,23.92
2019-03-27T19:16:59.641Z,20.30
2019-03-27T19:19:30.915Z,31.48
2019-03-27T19:22:02.221Z,21.15
2019-03-27T19:24:33.517Z,25.30
2019-03-27T19:27:06.506Z,36.00
2019-03-27T19:29:37.886Z,29.25
2019-03-27T19:32:09.121Z,27.32
2019-03-27T19:34:40.487Z,28.62
2019-03-27T19:37:11.870Z,34.15
2019-03-27T19:39:43.221Z,32.35
2019-03-27T19:42:14.619Z,24.37
2019-03-27T19:44:45.859Z,25.60
2019-03-27T19:47:17.156Z,29.50
2019-03-27T19:49:48.404Z,33.42
2019-03-27T19:52:19.902Z,30.55
2019-03-27T19:54:51.202Z,32.35
2019-03-27T19:57:22.439Z,30.55
2019-03-27T19:59:53.836Z,27.45
2019-03-27T20:02:25.069Z,45.10
2019-03-27T20:04:56.547Z,32.50
2019-03-27T20:07:35.824Z,39.35
2019-03-27T20:10:00.915Z,46.75
2019-03-27T20:12:32.220Z,44.18
2019-03-27T20:15:11.864Z,35.55
2019-03-27T20:17:36.738Z,37.70
2019-03-27T20:20:09.657Z,33.40
2019-03-27T20:22:41.053Z,33.73
2019-03-27T20:25:14.839Z,31.07
2019-03-27T20:27:45.550Z,43.80
2019-03-27T20:30:19.550Z,31.00
2019-03-27T20:32:50.916Z,35.20
2019-03-27T20:35:23.093Z,44.85
2019-03-27T20:37:54.579Z,40.03
2019-03-27T20:40:27.720Z,43.90
2019-03-27T20:42:58.989Z,39.98
2019-03-27T20:45:30.226Z,42.70
2019-03-27T20:48:01.582Z,40.30
2019-03-27T20:50:32.891Z,45.33
2019-03-27T20:53:04.143Z,51.53
2019-03-27T20:55:35.393Z,34.40
2019-03-27T20:58:06.777Z,31.23
2019-03-27T21:00:38.148Z,47.50
2019-03-27T21:03:09.493Z,40.52
2019-03-27T21:05:40.809Z,46.88
2019-03-27T21:08:12.162Z,43.42
2019-03-27T21:10:43.425Z,44.45
2019-03-27T21:13:14.750Z,53.60
2019-03-27T21:15:46.027Z,39.48
2019-03-27T21:18:17.481Z,38.55
2019-03-27T21:20:48.806Z,47.33
2019-03-27T21:23:20.121Z,39.50
2019-03-27T21:25:51.621Z,65.75
2019-03-27T21:28:22.855Z,40.50
2019-03-27T21:30:54.167Z,43.78
2019-03-27T21:33:25.542Z,46.15
2019-03-27T21:35:56.913Z,47.43
2019-03-27T21:38:28.222Z,37.05
2019-03-27T21:40:59.605Z,37.93
2019-03-27T21:43:30.825Z,48.95
2019-03-27T21:46:02.142Z,42.90
2019-03-27T21:48:33.703Z,42.17
2019-03-27T21:51:05.035Z,57.30
2019-03-27T21:53:37.169Z,56.40
2019-03-27T21:56:08.531Z,52.43
2019-03-27T21:58:39.842Z,57.53
2019-03-27T22:01:11.283Z,55.78
2019-03-27T22:03:42.637Z,50.63
2019-03-27T22:06:13.935Z,62.73
2019-03-27T22:08:45.246Z,74.15
2019-03-27T22:11:16.583Z,68.28
2019-03-27T22:13:47.878Z,54.13
2019-03-27T22:16:19.295Z,63.52
2019-03-27T22:18:50.675Z,65.08
2019-03-27T22:21:22.020Z,58.10
2019-03-27T22:23:53.404Z,60.33
2019-03-27T22:26:24.774Z,57.30
2019-03-27T22:28:56.122Z,56.28
2019-03-27T22:31:27.428Z,62.53
2019-03-27T22:33:58.794Z,66.20
2019-03-27T22:36:30.131Z,70.92
2019-03-27T22:39:01.439Z,76.77
2019-03-27T22:41:32.733Z,58.85
2019-03-27T22:44:04.062Z,64.70
2019-03-27T22:46:35.325Z,68.17
2019-03-27T22:49:06.693Z,74.20
2019-03-27T22:51:37.991Z,67.20
2019-03-27T22:54:09.320Z,65.12
2019-03-27T22:56:40.687Z,72.47
2019-03-27T22:59:12.010Z,66.65
2019-03-27T23:01:47.644Z,63.90
2019-03-27T23:04:19.007Z,63.98
2019-03-27T23:06:50.445Z,60.48
2019-03-27T23:09:21.704Z,63.63
2019-03-27T23:11:53.017Z,69.97
2019-03-27T23:14:24.352Z,53.33
2019-03-27T23:16:55.674Z,76.77
2019-03-27T23:19:26.993Z,52.78
2019-03-27T23:21:58.316Z,66.10
2019-03-27T23:24:29.681Z,56.13
2019-03-27T23:27:01.106Z,57.73
2019-03-27T23:29:32.437Z,57.00
2019-03-27T23:32:03.770Z,70.40
2019-03-27T23:34:35.080Z,71.62
2019-03-27T23:37:06.452Z,60.12
2019-03-27T23:39:37.810Z,66.92
2019-03-27T23:42:09.166Z,57.90
2019-03-27T23:44:40.565Z,61.40
2019-03-27T23:47:11.910Z,61.48
2019-03-27T23:49:43.213Z,59.95
2019-03-27T23:52:14.552Z,60.35
2019-03-27T23:54:45.831Z,48.73
2019-03-27T23:57:17.133Z,56.42
2019-03-27T23:59:48.758Z,57.33
